Terminal Aerodrome Forecast
Issued by NWS

Home | Current Version | Previous Version | Text Only | Print | Product List | Glossary On
Versions: 1 2 3 4 5 6 7 8 9 10 11 12
307
FTUS43 KICT 102352 RRA
TAFSLN
TAF
KSLN 102352Z 1100/1124 16009KT P6SM BKN150
     FM110300 16010KT P6SM BKN200 WS020/19040KT
     FM110800 18009KT 4SM BR OVC013
     FM111100 20005KT 3SM BR OVC005
     FM111400 28005KT P6SM OVC008
     FM111700 33012KT P6SM BKN050
     FM112200 34011KT P6SM SCT250=

USA.gov is the U.S. government's official web portal to all federal, state and local government web resources and services.